Pagina principale
METAR-TAF:

METAR-TAF

Aeroporti :

Aeroporto di Piacenza-San Damiano

Piacenza, Italia

latitudine: 44-55N, longitudine: 009-44E, altezza: 134 m

Osservazione

Il bollettino è stato emesso 5 ore e 20 minuti fa, alle 17:55 UTC
Vento 13 kt da ovest/sud-ovest, variando fra sud/sud-ovest e ovest/nord-ovest
Temperature 18°C
Umidità 68%
Pressione 1007 hPa
Visibilità 10 km o più
Nuvoloso ad un'altezza di 6000 ft

METAR: LIMS 151755Z 25013KT 210V290 9999 BKN060 18/12 Q1007 RMK BKN VIS MIN 9999 WIND THR30 24009KT BLU

Ora: 01:15 (23:15 UTC)


TAF: mancante

Osservazioni e previsioni meteorologiche di più di 4000 aeroporti (messaggi METAR e TAF).

Le stazioni disponibili sono rappresentate dai dischi gialli e rossi sulla carta.

Puntare il mouse per vedere il nome della stazione.

Clicca sopra per visualizzare le osservazioni e previsioni meteorologiche.

Per cambiare la mappa : fare clic sui pulsanti verdi con una croce nera per ingrandire, il pulsante verde con un trattino per diminuire, o sulla freccia verde per le mappe adiacenti.


METAR-TAF: